Terminal Aerodrome Forecast
Issued by NWS

Home | Current Version | Previous Version | Graphics & Text | Print | Product List | Glossary On
Versions: 1 2 3 4 5 6 7 8 9 10 11 12 13 14 15 16 17 18 19 20
279
FTUS43 KICT 210521
TAFCNU
TAF
KCNU 210521Z 2106/2206 10007KT P6SM OVC200
     FM210800 10008KT P6SM VCSH OVC150
     FM211100 09009KT 6SM -SHRA OVC090
     FM220000 04008KT 6SM -SHRA OVC045
     FM220200 04008KT 6SM -SHRA OVC030=

USA.gov is the U.S. government's official web portal to all federal, state and local government web resources and services.